Time;durP1;ratioP1;P1;durP2;ratioP2;P2;SDS_P1;SDS_P2;PMS_P1;PMS_P2;Temp;Humidity;BMP_temperature;BMP_pressure;BME280_temperature;BME280_humidity;BME280_pressure;Samples;Min_cycle;Max_cycle;Signal;HPM_P1;HPM_P2
2021/05/22 00:01:27;;;;;;;1.02;1.00;;;23.70;47.40;;;;;;5091555;28;20192;-44
2021/05/22 00:03:55;;;;;;;0.75;0.75;;;23.70;47.40;;;;;;5090804;28;20216;-41
2021/05/22 00:06:21;;;;;;;0.80;0.80;;;23.70;47.40;;;;;;5090930;28;20330;-44
2021/05/22 00:08:47;;;;;;;1.90;0.90;;;23.70;47.00;;;;;;5088531;28;20200;-42
2021/05/22 00:11:13;;;;;;;0.85;0.85;;;23.80;46.90;;;;;;5088602;28;20228;-42
2021/05/22 00:13:39;;;;;;;1.50;0.90;;;23.80;46.90;;;;;;5091018;28;20602;-47
2021/05/22 00:16:05;;;;;;;1.38;0.80;;;23.80;46.90;;;;;;5085770;28;20228;-47
2021/05/22 00:18:31;;;;;;;1.13;1.00;;;23.80;46.80;;;;;;5083497;28;20569;-47
2021/05/22 00:20:57;;;;;;;0.88;0.80;;;23.80;46.60;;;;;;5076108;28;20197;-43
2021/05/22 00:23:23;;;;;;;0.88;0.88;;;23.70;46.30;;;;;;5075032;28;20198;-45
2021/05/22 00:25:49;;;;;;;0.80;0.80;;;23.70;46.40;;;;;;5091583;28;20691;-46
2021/05/22 00:28:15;;;;;;;1.35;1.10;;;23.80;47.00;;;;;;5089590;28;20196;-42
2021/05/22 00:30:41;;;;;;;1.10;0.85;;;23.80;46.50;;;;;;5084935;28;20298;-48
2021/05/22 00:33:07;;;;;;;1.08;0.80;;;23.80;46.40;;;;;;5090585;28;20668;-49
2021/05/22 00:35:33;;;;;;;1.23;0.90;;;23.70;46.30;;;;;;5089401;28;20274;-46
2021/05/22 00:37:59;;;;;;;1.17;0.90;;;23.70;46.40;;;;;;5090673;28;20197;-43
2021/05/22 00:40:25;;;;;;;1.02;0.90;;;23.80;46.50;;;;;;5089840;28;20653;-44
2021/05/22 00:42:51;;;;;;;0.90;0.90;;;23.80;46.80;;;;;;5090450;28;20204;-43
2021/05/22 00:45:17;;;;;;;1.58;0.90;;;23.70;46.70;;;;;;5089190;28;20596;-52
2021/05/22 00:47:43;;;;;;;1.10;1.00;;;23.80;46.80;;;;;;5091576;28;20253;-43
2021/05/22 00:50:09;;;;;;;1.08;0.80;;;23.70;46.60;;;;;;5089868;28;20212;-46
2021/05/22 00:52:35;;;;;;;1.25;1.05;;;23.70;46.50;;;;;;5089352;28;20212;-42
2021/05/22 00:55:01;;;;;;;0.85;0.82;;;23.70;46.60;;;;;;5078910;28;20224;-44
2021/05/22 00:57:27;;;;;;;0.90;0.90;;;23.70;46.70;;;;;;5088352;28;20601;-42
2021/05/22 00:59:53;;;;;;;1.10;1.00;;;23.70;46.70;;;;;;5089829;28;20213;-42
2021/05/22 01:02:19;;;;;;;2.05;0.93;;;23.70;46.90;;;;;;5090559;28;20205;-44
2021/05/22 01:04:45;;;;;;;1.00;0.90;;;23.70;46.70;;;;;;5087844;28;20221;-45
2021/05/22 01:07:11;;;;;;;1.13;0.80;;;23.70;46.70;;;;;;5090546;28;20204;-46
2021/05/22 01:09:37;;;;;;;1.15;0.80;;;23.70;46.80;;;;;;5089750;28;20196;-44
2021/05/22 01:12:03;;;;;;;1.27;0.88;;;23.70;47.00;;;;;;5090082;28;20207;-46
2021/05/22 01:14:29;;;;;;;1.27;0.80;;;23.70;46.60;;;;;;5089639;28;20954;-45
2021/05/22 01:16:55;;;;;;;1.23;1.00;;;23.70;46.80;;;;;;5090773;28;20249;-41
2021/05/22 01:19:21;;;;;;;1.58;1.02;;;23.70;46.70;;;;;;5089862;28;20220;-43
2021/05/22 01:21:47;;;;;;;0.77;0.70;;;23.70;46.80;;;;;;5089523;28;20205;-41
2021/05/22 01:24:13;;;;;;;1.10;1.00;;;23.70;46.80;;;;;;5081349;28;20207;-43
2021/05/22 01:26:39;;;;;;;1.05;0.98;;;23.70;46.50;;;;;;5088038;28;20723;-43
2021/05/22 01:29:05;;;;;;;0.85;0.85;;;23.70;46.50;;;;;;5090567;28;20208;-42
2021/05/22 01:31:31;;;;;;;0.90;0.90;;;23.70;46.20;;;;;;5075262;28;20192;-42
2021/05/22 01:33:57;;;;;;;0.80;0.80;;;23.70;46.30;;;;;;5088238;28;20200;-43
2021/05/22 01:36:23;;;;;;;1.05;0.93;;;23.70;46.00;;;;;;5089976;28;20205;-45
2021/05/22 01:38:49;;;;;;;1.20;1.10;;;23.70;46.10;;;;;;5089804;28;20524;-42
2021/05/22 01:41:15;;;;;;;0.90;0.80;;;23.70;46.00;;;;;;5090359;28;20269;-41
2021/05/22 01:43:41;;;;;;;1.02;0.90;;;23.70;45.90;;;;;;5090082;28;20204;-41
2021/05/22 01:46:07;;;;;;;1.42;1.00;;;23.70;45.80;;;;;;5090300;28;20757;-42
2021/05/22 01:48:33;;;;;;;0.82;0.82;;;23.70;45.60;;;;;;5080221;28;20197;-41
2021/05/22 01:50:59;;;;;;;0.80;0.80;;;23.70;45.70;;;;;;5089873;28;20212;-42
2021/05/22 01:53:25;;;;;;;0.80;0.80;;;23.70;45.70;;;;;;5088182;28;20200;-42
2021/05/22 01:55:51;;;;;;;0.98;0.90;;;23.70;45.70;;;;;;5090318;28;20216;-41
2021/05/22 01:58:17;;;;;;;0.77;0.77;;;23.70;45.70;;;;;;5090110;28;20196;-47
2021/05/22 02:00:44;;;;;;;0.80;0.80;;;23.70;45.70;;;;;;5089115;28;20200;-44
2021/05/22 02:03:10;;;;;;;0.80;0.80;;;23.70;46.00;;;;;;5080426;28;20205;-44
2021/05/22 02:05:36;;;;;;;0.80;0.80;;;23.70;45.80;;;;;;5080718;28;20285;-41
2021/05/22 02:08:02;;;;;;;0.80;0.80;;;23.70;45.90;;;;;;5090355;28;20557;-43
2021/05/22 02:10:28;;;;;;;0.88;0.88;;;23.70;45.70;;;;;;5088413;28;20205;-43
2021/05/22 02:12:54;;;;;;;0.88;0.70;;;23.70;45.80;;;;;;5088973;28;20196;-42
2021/05/22 02:15:20;;;;;;;1.00;0.80;;;23.70;45.80;;;;;;5088906;28;20722;-42
2021/05/22 02:17:46;;;;;;;1.70;0.93;;;23.70;45.80;;;;;;5090021;28;20201;-47
2021/05/22 02:20:12;;;;;;;1.13;1.02;;;23.70;46.00;;;;;;5089709;28;20574;-41
2021/05/22 02:22:38;;;;;;;0.88;0.85;;;23.70;46.10;;;;;;5087422;28;20211;-41
2021/05/22 02:25:04;;;;;;;0.90;0.90;;;23.70;46.00;;;;;;5088412;28;20224;-42
2021/05/22 02:27:30;;;;;;;0.70;0.70;;;23.60;45.90;;;;;;5088798;28;20201;-42
2021/05/22 02:29:57;;;;;;;1.17;0.90;;;23.60;45.90;;;;;;5089341;28;20843;-45
2021/05/22 02:32:22;;;;;;;0.75;0.75;;;23.70;45.90;;;;;;5091284;28;20670;-42
2021/05/22 02:34:49;;;;;;;1.13;0.90;;;23.60;45.80;;;;;;5092555;28;20220;-45
2021/05/22 02:37:15;;;;;;;1.00;0.90;;;23.70;46.00;;;;;;5093602;28;20212;-44
2021/05/22 02:39:41;;;;;;;1.08;0.98;;;23.70;46.10;;;;;;5092434;28;20208;-44
2021/05/22 02:42:07;;;;;;;1.27;1.00;;;23.70;46.10;;;;;;5085618;28;20218;-48
2021/05/22 02:44:33;;;;;;;0.80;0.80;;;23.70;46.00;;;;;;5092340;28;20220;-42
2021/05/22 02:46:59;;;;;;;0.80;0.80;;;23.60;46.30;;;;;;5091915;28;20665;-44
2021/05/22 02:49:26;;;;;;;0.80;0.80;;;23.70;46.40;;;;;;5090214;28;20287;-42
2021/05/22 02:51:52;;;;;;;0.82;0.80;;;23.70;46.30;;;;;;5099246;28;20192;-46
2021/05/22 02:54:18;;;;;;;0.80;0.80;;;23.60;46.30;;;;;;5087263;28;20216;-45
2021/05/22 02:56:44;;;;;;;0.82;0.82;;;23.70;46.20;;;;;;5092515;28;20208;-44
2021/05/22 02:59:10;;;;;;;1.50;0.80;;;23.70;46.30;;;;;;5093155;28;20239;-43
2021/05/22 03:01:36;;;;;;;0.70;0.70;;;23.60;46.20;;;;;;5082428;28;20225;-41
2021/05/22 03:04:02;;;;;;;0.75;0.75;;;23.70;46.20;;;;;;5077697;28;20216;-46
2021/05/22 03:06:28;;;;;;;0.65;0.65;;;23.70;46.30;;;;;;5091914;28;20232;-50
2021/05/22 03:08:54;;;;;;;0.85;0.80;;;23.70;46.30;;;;;;5092763;28;20207;-45
2021/05/22 03:11:20;;;;;;;0.85;0.80;;;23.70;46.20;;;;;;5092413;28;20622;-42
2021/05/22 03:13:46;;;;;;;0.80;0.80;;;23.60;46.20;;;;;;5091726;28;20201;-48
2021/05/22 03:16:12;;;;;;;0.90;0.90;;;23.70;46.30;;;;;;5092694;28;20203;-48
2021/05/22 03:18:38;;;;;;;0.80;0.80;;;23.70;46.30;;;;;;5092431;28;20208;-49
2021/05/22 03:21:04;;;;;;;0.80;0.80;;;23.70;46.10;;;;;;5092440;28;20195;-44
2021/05/22 03:23:30;;;;;;;1.10;1.00;;;23.70;46.30;;;;;;5091135;28;20205;-44
2021/05/22 03:25:56;;;;;;;0.80;0.80;;;23.70;46.00;;;;;;5092663;28;20224;-41
2021/05/22 03:28:22;;;;;;;0.80;0.80;;;23.70;46.10;;;;;;5091264;28;20602;-45
2021/05/22 03:30:48;;;;;;;1.35;0.80;;;23.70;46.20;;;;;;5076522;28;20250;-40
2021/05/22 03:33:14;;;;;;;1.45;1.35;;;23.70;46.20;;;;;;5091073;28;20566;-45
2021/05/22 03:35:40;;;;;;;0.77;0.70;;;23.70;46.20;;;;;;5077889;28;20221;-41
2021/05/22 03:38:06;;;;;;;0.70;0.70;;;23.60;46.20;;;;;;5081042;28;20208;-41
2021/05/22 03:40:32;;;;;;;1.65;1.02;;;23.70;46.30;;;;;;5089846;28;20250;-45
2021/05/22 03:42:58;;;;;;;0.88;0.80;;;23.70;46.30;;;;;;5090019;28;20192;-40
2021/05/22 03:45:24;;;;;;;0.70;0.70;;;23.70;46.20;;;;;;5090903;28;20700;-43
2021/05/22 03:47:50;;;;;;;0.98;0.93;;;23.60;46.10;;;;;;5092400;28;20212;-40
2021/05/22 03:50:16;;;;;;;0.70;0.70;;;23.60;46.20;;;;;;5090571;28;20204;-44
2021/05/22 03:52:43;;;;;;;0.80;0.80;;;23.70;46.30;;;;;;5071269;28;20814;-40
2021/05/22 03:55:08;;;;;;;0.98;0.80;;;23.70;46.30;;;;;;5091309;28;20228;-41
2021/05/22 03:57:34;;;;;;;0.70;0.70;;;23.70;46.50;;;;;;5091425;28;20200;-41
2021/05/22 04:00:00;;;;;;;0.93;0.80;;;23.70;46.30;;;;;;5091225;28;20577;-41
2021/05/22 04:02:26;;;;;;;1.23;1.13;;;23.60;46.30;;;;;;5090215;28;20193;-41
2021/05/22 04:04:53;;;;;;;0.95;0.80;;;23.70;46.20;;;;;;5075552;28;20587;-42
2021/05/22 04:07:19;;;;;;;1.27;0.70;;;23.60;46.30;;;;;;5091447;28;20224;-41
2021/05/22 04:09:45;;;;;;;0.80;0.80;;;23.70;46.40;;;;;;5090296;28;20290;-43
2021/05/22 04:12:11;;;;;;;0.73;0.73;;;23.60;46.30;;;;;;5092012;28;20201;-42
2021/05/22 04:14:36;;;;;;;1.10;1.00;;;23.60;46.20;;;;;;5072954;28;20294;-42
2021/05/22 04:17:02;;;;;;;1.05;0.88;;;23.70;46.30;;;;;;5073491;28;20201;-40
2021/05/22 04:19:28;;;;;;;1.17;0.90;;;23.60;46.20;;;;;;5086117;28;20211;-39
2021/05/22 04:21:54;;;;;;;1.95;1.23;;;23.70;47.30;;;;;;5092028;28;20208;-44
2021/05/22 04:24:20;;;;;;;0.77;0.77;;;23.70;47.30;;;;;;5086629;28;20220;-41
2021/05/22 04:26:46;;;;;;;1.23;0.77;;;23.60;47.10;;;;;;5077148;28;20228;-41
2021/05/22 04:29:12;;;;;;;1.20;0.70;;;23.70;46.90;;;;;;5073996;28;20653;-39
2021/05/22 04:31:38;;;;;;;0.90;0.90;;;23.70;46.60;;;;;;5088971;28;20201;-40
2021/05/22 04:34:04;;;;;;;0.98;0.70;;;23.70;46.70;;;;;;5090528;28;20574;-43
2021/05/22 04:36:30;;;;;;;1.02;0.90;;;23.70;46.70;;;;;;5089849;28;20204;-41
2021/05/22 04:38:56;;;;;;;0.80;0.80;;;23.70;46.80;;;;;;5080661;28;20205;-38
2021/05/22 04:41:22;;;;;;;1.25;1.02;;;23.70;46.70;;;;;;5082670;28;20209;-42
2021/05/22 04:43:48;;;;;;;1.45;1.35;;;23.60;46.40;;;;;;5071772;28;20228;-40
2021/05/22 04:46:14;;;;;;;1.00;0.90;;;23.60;46.40;;;;;;5090430;28;20888;-41
2021/05/22 04:48:40;;;;;;;0.80;0.77;;;23.60;46.40;;;;;;5089217;28;20253;-39
2021/05/22 04:51:06;;;;;;;0.80;0.80;;;23.70;46.60;;;;;;5070259;28;20205;-42
2021/05/22 04:53:32;;;;;;;1.65;0.90;;;23.70;46.50;;;;;;5076767;28;20765;-45
2021/05/22 04:55:58;;;;;;;1.48;1.00;;;23.70;46.30;;;;;;5089245;28;20201;-42
2021/05/22 04:58:24;;;;;;;0.80;0.80;;;23.70;46.40;;;;;;5091206;28;20253;-39
2021/05/22 05:00:50;;;;;;;0.77;0.77;;;23.70;46.30;;;;;;5072228;28;20652;-39
2021/05/22 05:03:16;;;;;;;0.80;0.80;;;23.70;46.20;;;;;;5086211;28;20204;-39
2021/05/22 05:05:42;;;;;;;1.50;1.02;;;23.70;46.00;;;;;;5086346;28;20228;-39
2021/05/22 05:08:08;;;;;;;0.80;0.80;;;23.60;46.10;;;;;;5090675;28;20241;-39
2021/05/22 05:10:34;;;;;;;0.75;0.75;;;23.60;46.20;;;;;;5089179;28;20196;-43
2021/05/22 05:13:00;;;;;;;0.82;0.82;;;23.60;46.30;;;;;;5089724;28;20212;-44
2021/05/22 05:15:26;;;;;;;0.95;0.80;;;23.70;46.20;;;;;;5088582;28;20275;-44
2021/05/22 05:17:52;;;;;;;1.20;0.80;;;23.70;46.30;;;;;;5089863;28;20201;-41
2021/05/22 05:20:18;;;;;;;0.80;0.80;;;23.60;46.30;;;;;;5090776;28;20200;-39
2021/05/22 05:22:44;;;;;;;0.93;0.80;;;23.70;46.30;;;;;;5087776;28;20197;-39
2021/05/22 05:25:10;;;;;;;0.70;0.70;;;23.70;46.30;;;;;;5088551;28;20684;-40
2021/05/22 05:27:36;;;;;;;0.80;0.80;;;23.70;46.00;;;;;;5089798;28;20200;-41
2021/05/22 05:30:02;;;;;;;1.25;0.85;;;23.70;46.10;;;;;;5090308;28;20249;-41
2021/05/22 05:32:28;;;;;;;0.77;0.77;;;23.60;46.00;;;;;;5088559;28;20208;-45
2021/05/22 05:34:54;;;;;;;0.70;0.70;;;23.70;45.80;;;;;;5089978;28;20216;-44
2021/05/22 05:37:22;;;;;;;1.20;1.10;;;23.70;45.50;;;;;;5090030;28;20656;-45
2021/05/22 05:39:48;;;;;;;0.80;0.80;;;23.70;45.50;;;;;;5073107;28;20211;-43
2021/05/22 05:42:14;;;;;;;1.95;1.00;;;23.70;45.50;;;;;;5089629;28;20196;-42
2021/05/22 05:44:40;;;;;;;2.00;0.90;;;23.70;45.40;;;;;;5089209;28;20224;-46
2021/05/22 05:47:06;;;;;;;1.10;0.80;;;23.70;45.50;;;;;;5089012;28;20712;-45
2021/05/22 05:49:32;;;;;;;0.82;0.80;;;23.70;45.60;;;;;;5089958;28;20211;-42
2021/05/22 05:51:58;;;;;;;0.80;0.80;;;23.70;45.60;;;;;;5075985;28;20205;-44
2021/05/22 05:54:24;;;;;;;0.70;0.70;;;23.70;45.60;;;;;;5083668;28;20220;-44
2021/05/22 05:56:50;;;;;;;0.73;0.73;;;23.70;45.60;;;;;;5075652;28;20199;-44
2021/05/22 05:59:16;;;;;;;0.70;0.70;;;23.70;45.60;;;;;;5104627;28;20199;-45
2021/05/22 06:01:42;;;;;;;0.63;0.63;;;23.70;45.70;;;;;;5098380;28;20982;-45
2021/05/22 06:04:08;;;;;;;1.08;0.93;;;23.70;45.60;;;;;;5075620;28;20224;-44
2021/05/22 06:06:34;;;;;;;0.80;0.80;;;23.70;45.70;;;;;;5073262;28;20232;-44
2021/05/22 06:09:00;;;;;;;1.13;0.70;;;23.70;45.70;;;;;;5090416;28;20205;-42
2021/05/22 06:11:29;;;;;;;0.80;0.80;;;23.70;45.70;;;;;;5093373;28;20204;-44
2021/05/22 06:13:55;;;;;;;1.23;0.85;;;23.70;45.80;;;;;;5092076;28;20224;-45
2021/05/22 06:16:26;;;;;;;0.90;0.90;;;23.70;45.80;;;;;;5093210;28;20317;-46
2021/05/22 06:18:53;;;;;;;0.93;0.93;;;23.70;45.90;;;;;;5094287;28;20261;-40
2021/05/22 06:21:19;;;;;;;1.45;0.90;;;23.70;45.80;;;;;;5088677;28;20203;-42
2021/05/22 06:23:45;;;;;;;1.02;0.80;;;23.70;46.00;;;;;;5093015;28;20220;-41
2021/05/22 06:26:11;;;;;;;1.02;0.75;;;23.70;46.10;;;;;;5090705;28;20254;-39
2021/05/22 06:28:37;;;;;;;1.85;0.90;;;23.70;46.00;;;;;;5091400;28;20247;-42
2021/05/22 06:31:05;;;;;;;1.27;0.68;;;23.70;46.20;;;;;;5093764;28;20649;-42
2021/05/22 06:33:31;;;;;;;0.77;0.77;;;23.70;46.30;;;;;;5093374;28;20865;-41
2021/05/22 06:35:57;;;;;;;0.95;0.90;;;23.70;46.20;;;;;;5087569;28;20224;-39
2021/05/22 06:38:23;;;;;;;0.82;0.80;;;23.70;46.50;;;;;;5087471;28;20557;-39
2021/05/22 06:40:49;;;;;;;1.65;0.82;;;23.70;46.40;;;;;;5093533;28;20212;-43
2021/05/22 06:43:15;;;;;;;3.53;1.10;;;23.70;46.80;;;;;;5091589;28;20641;-39
2021/05/22 06:45:42;;;;;;;2.58;0.90;;;23.70;47.50;;;;;;5087587;28;20224;-39
2021/05/22 06:48:08;;;;;;;1.42;1.15;;;23.80;47.00;;;;;;5091701;28;20263;-41
2021/05/22 06:50:34;;;;;;;1.33;0.93;;;23.70;46.70;;;;;;5092995;28;20200;-39
2021/05/22 06:53:00;;;;;;;3.47;0.90;;;23.70;46.90;;;;;;5090871;28;20216;-38
2021/05/22 06:55:26;;;;;;;1.73;1.10;;;23.80;47.40;;;;;;5091614;28;20215;-39
2021/05/22 06:57:52;;;;;;;3.10;1.17;;;23.80;46.50;;;;;;5093657;28;20253;-39
2021/05/22 07:00:18;;;;;;;4.05;1.42;;;23.80;46.80;;;;;;5092402;28;20649;-39
2021/05/22 07:02:44;;;;;;;6.18;1.45;;;23.80;46.80;;;;;;5091003;28;20204;-39
2021/05/22 07:05:10;;;;;;;7.32;2.40;;;23.70;46.70;;;;;;5090820;28;20271;-38
2021/05/22 07:07:38;;;;;;;6.35;1.77;;;23.80;48.50;;;;;;5091416;28;20223;-40
2021/05/22 07:10:04;;;;;;;4.40;1.60;;;23.80;49.20;;;;;;5092589;28;20287;-42
2021/05/22 07:12:30;;;;;;;5.47;1.90;;;23.80;48.30;;;;;;5092020;28;20201;-37
2021/05/22 07:14:56;;;;;;;4.53;1.63;;;23.70;47.30;;;;;;5091164;28;20219;-38
2021/05/22 07:17:22;;;;;;;5.38;2.80;;;23.70;46.30;;;;;;5092817;28;20204;-41
2021/05/22 07:19:48;;;;;;;3.53;1.50;;;23.70;46.00;;;;;;5087305;28;20681;-45
2021/05/22 07:22:14;;;;;;;3.88;2.03;;;23.70;45.80;;;;;;5086651;28;20200;-40
2021/05/22 07:24:41;;;;;;;3.53;1.40;;;23.60;45.70;;;;;;5091249;28;20718;-41
2021/05/22 07:27:07;;;;;;;3.20;1.40;;;23.60;45.60;;;;;;5093178;28;20236;-39
2021/05/22 07:29:33;;;;;;;2.70;1.40;;;23.60;45.40;;;;;;5091634;28;20204;-40
2021/05/22 07:31:59;;;;;;;2.38;1.30;;;21.80;41.00;;;;;;5085967;28;20285;-40
2021/05/22 07:34:25;;;;;;;2.80;1.38;;;20.10;42.00;;;;;;5088456;28;20300;-43
2021/05/22 07:36:51;;;;;;;1.23;1.13;;;19.90;42.50;;;;;;5090764;28;20209;-47
2021/05/22 07:39:17;;;;;;;2.17;1.10;;;21.00;43.10;;;;;;5092001;28;20277;-44
2021/05/22 07:41:43;;;;;;;2.87;1.20;;;21.90;42.10;;;;;;5093051;28;20935;-42
2021/05/22 07:44:09;;;;;;;3.38;1.00;;;22.40;42.30;;;;;;5084986;28;20744;-45
2021/05/22 07:46:35;;;;;;;1.90;1.20;;;22.80;41.90;;;;;;5088050;28;20423;-45
2021/05/22 07:49:01;;;;;;;2.20;1.10;;;23.00;42.00;;;;;;5085042;28;20204;-42
2021/05/22 07:51:27;;;;;;;2.20;1.13;;;23.20;42.20;;;;;;5091544;28;20197;-42
2021/05/22 07:53:53;;;;;;;2.70;1.17;;;23.30;42.50;;;;;;5089510;28;20224;-42
2021/05/22 07:56:19;;;;;;;2.42;1.10;;;23.40;43.00;;;;;;5082054;28;20208;-44
2021/05/22 07:58:45;;;;;;;2.35;1.17;;;23.40;43.30;;;;;;5091686;28;20809;-41
2021/05/22 08:01:11;;;;;;;2.22;1.30;;;23.50;43.40;;;;;;5091838;28;20283;-43
2021/05/22 08:03:37;;;;;;;2.08;1.05;;;23.60;43.70;;;;;;5082831;28;20232;-42
2021/05/22 08:06:03;;;;;;;4.13;1.05;;;23.60;44.70;;;;;;5089405;28;20232;-43
2021/05/22 08:08:29;;;;;;;2.45;1.10;;;23.80;44.90;;;;;;5089646;28;20446;-43
2021/05/22 08:10:55;;;;;;;1.85;1.63;;;23.80;45.50;;;;;;5091073;28;20219;-42
2021/05/22 08:13:21;;;;;;;2.55;1.13;;;23.90;45.30;;;;;;5088253;28;20645;-42
2021/05/22 08:15:47;;;;;;;2.20;1.02;;;23.90;45.40;;;;;;5089375;28;20200;-46
2021/05/22 08:18:13;;;;;;;2.92;1.42;;;23.90;45.90;;;;;;5087743;28;20250;-43
2021/05/22 08:20:39;;;;;;;2.67;1.20;;;23.90;45.50;;;;;;5086987;28;20197;-48
2021/05/22 08:23:05;;;;;;;2.53;1.00;;;23.90;45.20;;;;;;5084220;28;20734;-44
2021/05/22 08:25:31;;;;;;;1.88;1.35;;;23.80;45.50;;;;;;5091000;28;20228;-41
2021/05/22 08:27:57;;;;;;;1.85;1.08;;;23.80;45.60;;;;;;5089855;28;20204;-43
2021/05/22 08:30:23;;;;;;;2.15;0.90;;;23.90;46.20;;;;;;5089130;28;20233;-40
2021/05/22 08:32:49;;;;;;;2.17;1.33;;;23.80;44.90;;;;;;5090262;28;20231;-43
2021/05/22 08:35:15;;;;;;;2.00;1.17;;;23.80;43.10;;;;;;5089533;28;20196;-42
2021/05/22 08:37:41;;;;;;;1.75;0.98;;;23.80;42.20;;;;;;5087743;28;20193;-40
2021/05/22 08:40:07;;;;;;;1.60;1.20;;;23.80;42.80;;;;;;5084425;28;20620;-40
2021/05/22 08:42:33;;;;;;;1.02;0.80;;;23.80;42.70;;;;;;5090181;28;20215;-45
2021/05/22 08:44:59;;;;;;;2.38;1.00;;;23.80;42.70;;;;;;5089854;28;20216;-42
2021/05/22 08:47:25;;;;;;;2.15;1.00;;;23.70;42.70;;;;;;5085238;28;20255;-43
2021/05/22 08:49:51;;;;;;;1.83;0.73;;;23.70;43.10;;;;;;5081938;28;20201;-47
2021/05/22 08:52:17;;;;;;;1.05;0.90;;;23.80;42.90;;;;;;5081967;28;20699;-41
2021/05/22 08:54:43;;;;;;;1.40;0.80;;;23.80;42.80;;;;;;5084326;28;20204;-43
2021/05/22 08:57:09;;;;;;;1.83;1.10;;;23.70;42.90;;;;;;5085571;28;20655;-44
2021/05/22 08:59:41;;;;;;;2.08;0.80;;;23.70;43.30;;;;;;5084067;28;20501;-45
2021/05/22 09:02:07;;;;;;;1.02;0.90;;;23.90;36.70;;;;;;5091282;28;20208;-45
2021/05/22 09:04:33;;;;;;;0.93;0.80;;;23.90;36.30;;;;;;5087531;28;20218;-45
2021/05/22 09:06:59;;;;;;;2.00;1.27;;;23.90;36.40;;;;;;5090437;28;20268;-44
2021/05/22 09:09:25;;;;;;;2.17;0.85;;;23.90;36.60;;;;;;5089967;28;20239;-44
2021/05/22 09:11:51;;;;;;;1.10;1.00;;;23.90;37.00;;;;;;5087865;28;20722;-45
2021/05/22 09:14:17;;;;;;;2.10;0.88;;;23.90;37.00;;;;;;5085917;28;20200;-46
2021/05/22 09:16:43;;;;;;;1.38;0.90;;;23.90;36.50;;;;;;5088900;28;20204;-43
2021/05/22 09:19:09;;;;;;;1.42;0.80;;;23.90;37.40;;;;;;5088847;28;20204;-45
2021/05/22 09:21:36;;;;;;;2.45;1.20;;;23.90;36.90;;;;;;5089073;28;20204;-47
2021/05/22 09:24:02;;;;;;;1.52;1.15;;;23.90;36.60;;;;;;5086712;28;20576;-48
2021/05/22 09:26:28;;;;;;;1.45;1.00;;;23.90;37.00;;;;;;5088975;28;20242;-46
2021/05/22 09:28:55;;;;;;;1.88;1.20;;;23.90;36.80;;;;;;5077443;28;20196;-47
2021/05/22 09:31:21;;;;;;;1.20;0.90;;;23.90;36.80;;;;;;5082192;28;20253;-46
2021/05/22 09:33:47;;;;;;;1.38;1.00;;;23.90;36.60;;;;;;5085755;28;20220;-47
2021/05/22 09:36:13;;;;;;;1.42;1.00;;;23.90;36.50;;;;;;5087288;28;20212;-49
2021/05/22 09:38:39;;;;;;;0.98;0.70;;;23.90;36.50;;;;;;5075575;28;20205;-47
2021/05/22 09:41:05;;;;;;;1.13;0.75;;;23.90;36.40;;;;;;5074340;28;20201;-48
2021/05/22 09:43:31;;;;;;;1.33;0.80;;;23.90;36.30;;;;;;5088368;28;20632;-44
2021/05/22 09:45:57;;;;;;;1.45;0.90;;;23.90;36.50;;;;;;5092408;28;20228;-46
2021/05/22 09:48:25;;;;;;;0.90;0.90;;;23.90;36.30;;;;;;5088491;28;20261;-47
2021/05/22 09:50:51;;;;;;;1.30;0.80;;;23.90;36.10;;;;;;5086347;28;20208;-45
2021/05/22 09:53:17;;;;;;;0.82;0.80;;;23.90;36.20;;;;;;5087402;28;20265;-46
2021/05/22 09:55:43;;;;;;;0.90;0.90;;;23.90;36.10;;;;;;5087702;28;20281;-47
2021/05/22 09:58:09;;;;;;;0.80;0.80;;;23.90;36.40;;;;;;5087296;28;20192;-48
2021/05/22 10:00:35;;;;;;;0.80;0.77;;;23.90;36.30;;;;;;5072586;28;20260;-44
2021/05/22 10:03:01;;;;;;;1.90;0.90;;;23.90;36.20;;;;;;5088331;28;20577;-47
2021/05/22 10:05:28;;;;;;;0.82;0.82;;;23.90;36.40;;;;;;5077797;28;20688;-45
2021/05/22 10:07:54;;;;;;;2.60;1.00;;;23.90;36.10;;;;;;5089006;28;20196;-42
2021/05/22 10:10:20;;;;;;;1.08;0.90;;;23.90;36.30;;;;;;5087810;28;20548;-45
2021/05/22 10:12:46;;;;;;;1.23;0.90;;;23.90;36.70;;;;;;5088828;28;20227;-42
2021/05/22 10:15:12;;;;;;;2.15;1.20;;;23.90;36.60;;;;;;5086646;28;20559;-48
2021/05/22 10:17:38;;;;;;;1.15;0.90;;;23.90;36.70;;;;;;5087613;28;20223;-42
2021/05/22 10:20:05;;;;;;;0.80;0.70;;;23.90;37.10;;;;;;5090199;28;20204;-45
2021/05/22 10:22:31;;;;;;;1.13;0.90;;;23.90;37.30;;;;;;5088417;28;20310;-45
2021/05/22 10:24:57;;;;;;;1.27;0.98;;;23.90;37.00;;;;;;5086441;28;20245;-44
2021/05/22 10:27:23;;;;;;;0.73;0.73;;;23.90;37.70;;;;;;5074984;28;20268;-44
2021/05/22 10:29:49;;;;;;;2.47;0.80;;;24.00;37.80;;;;;;5081764;28;20212;-42
2021/05/22 10:32:15;;;;;;;1.88;0.82;;;23.90;37.10;;;;;;5089242;28;20235;-42
2021/05/22 10:34:41;;;;;;;4.93;1.40;;;23.90;36.00;;;;;;5083638;28;20205;-44
2021/05/22 10:37:07;;;;;;;3.53;1.30;;;23.90;34.90;;;;;;5089101;28;20204;-41
2021/05/22 10:39:33;;;;;;;9.20;1.75;;;23.90;35.20;;;;;;5088212;28;20250;-44
2021/05/22 10:41:59;;;;;;;4.55;1.50;;;23.90;35.20;;;;;;5090040;28;20228;-44
2021/05/22 10:44:25;;;;;;;6.22;1.20;;;23.90;35.40;;;;;;5087120;28;20676;-42
2021/05/22 10:46:51;;;;;;;1.25;1.00;;;24.00;35.90;;;;;;5089594;28;20233;-44
2021/05/22 10:49:17;;;;;;;2.22;0.95;;;23.90;35.70;;;;;;5086805;28;20259;-48
2021/05/22 10:51:43;;;;;;;3.83;1.17;;;24.00;35.80;;;;;;5087939;28;20220;-46
2021/05/22 10:54:13;;;;;;;2.15;1.05;;;24.00;36.00;;;;;;5090388;28;20196;-44
2021/05/22 10:56:39;;;;;;;3.65;1.65;;;24.00;36.10;;;;;;5091617;28;20230;-48
2021/05/22 10:59:07;;;;;;;2.85;1.25;;;24.00;36.40;;;;;;5089251;28;20299;-43
2021/05/22 11:01:35;;;;;;;4.05;0.93;;;24.00;36.30;;;;;;5092899;28;20220;-45
2021/05/22 11:04:01;;;;;;;2.10;1.08;;;24.00;36.20;;;;;;5091638;28;20632;-45
2021/05/22 11:06:27;;;;;;;2.97;0.90;;;23.90;36.10;;;;;;5091649;28;20757;-46
2021/05/22 11:08:53;;;;;;;2.97;1.10;;;23.90;36.10;;;;;;5084909;28;20252;-45
2021/05/22 11:11:19;;;;;;;2.47;1.02;;;23.90;36.10;;;;;;5077978;28;20201;-46
2021/05/22 11:13:45;;;;;;;2.58;1.20;;;23.90;36.10;;;;;;5084950;28;20534;-49
2021/05/22 11:16:12;;;;;;;2.20;0.90;;;23.90;36.20;;;;;;5090600;28;20254;-49
2021/05/22 11:18:37;;;;;;;1.85;0.90;;;23.90;36.30;;;;;;5086386;28;20258;-46
2021/05/22 11:21:03;;;;;;;1.48;0.95;;;23.90;36.30;;;;;;5078423;28;20196;-48
2021/05/22 11:23:29;;;;;;;1.65;1.00;;;23.90;36.30;;;;;;5088965;28;20246;-45
2021/05/22 11:25:55;;;;;;;1.27;1.15;;;23.90;36.40;;;;;;5091577;28;20228;-45
2021/05/22 11:28:21;;;;;;;3.50;1.20;;;23.90;36.70;;;;;;5091164;28;20318;-43
2021/05/22 11:30:47;;;;;;;2.35;1.00;;;23.90;36.50;;;;;;5084073;28;20223;-44
2021/05/22 11:33:14;;;;;;;3.17;0.95;;;23.90;36.50;;;;;;5077307;28;20213;-46
2021/05/22 11:35:40;;;;;;;1.27;1.02;;;23.90;36.70;;;;;;5085609;28;20201;-51
2021/05/22 11:38:06;;;;;;;4.75;1.30;;;23.90;36.40;;;;;;5091503;28;20297;-45
2021/05/22 11:40:32;;;;;;;1.50;1.00;;;23.90;36.40;;;;;;5091586;28;20211;-46
2021/05/22 11:42:58;;;;;;;3.03;1.17;;;23.90;36.50;;;;;;5085027;28;20228;-43
2021/05/22 11:45:24;;;;;;;3.58;1.58;;;23.90;36.40;;;;;;5089521;28;20299;-49
2021/05/22 11:47:50;;;;;;;3.38;1.42;;;23.90;36.40;;;;;;5085989;28;20213;-44
2021/05/22 11:50:16;;;;;;;3.40;0.98;;;23.90;36.60;;;;;;5085804;28;20273;-43
2021/05/22 11:52:42;;;;;;;2.00;1.25;;;23.90;36.40;;;;;;5082087;28;20213;-43
2021/05/22 11:55:08;;;;;;;3.15;1.30;;;23.90;36.70;;;;;;5086870;28;20199;-41
2021/05/22 11:57:34;;;;;;;1.70;1.00;;;24.00;37.10;;;;;;5091217;28;20215;-44
2021/05/22 12:00:00;;;;;;;3.60;1.20;;;23.90;36.40;;;;;;5091905;28;20193;-43
2021/05/22 12:02:26;;;;;;;4.97;1.58;;;23.90;36.60;;;;;;5090651;28;20288;-45
2021/05/22 12:04:52;;;;;;;4.53;1.30;;;23.90;37.10;;;;;;5091616;28;20372;-46
2021/05/22 12:07:19;;;;;;;4.82;1.40;;;23.90;37.30;;;;;;5090852;28;20719;-49
2021/05/22 12:09:45;;;;;;;4.13;1.33;;;23.90;36.80;;;;;;5080062;28;20208;-44
2021/05/22 12:12:13;;;;;;;2.05;1.40;;;23.90;36.80;;;;;;5079811;28;20247;-41
2021/05/22 12:14:39;;;;;;;2.90;1.20;;;23.90;36.60;;;;;;5086738;28;20197;-43
2021/05/22 12:17:05;;;;;;;2.20;1.20;;;23.90;37.10;;;;;;5087243;28;20556;-42
2021/05/22 12:19:31;;;;;;;2.70;1.50;;;23.90;37.00;;;;;;5088195;28;20240;-46
2021/05/22 12:21:57;;;;;;;2.42;1.23;;;23.90;36.60;;;;;;5090686;28;20212;-44
2021/05/22 12:24:23;;;;;;;3.47;1.20;;;23.90;36.60;;;;;;5083059;28;21368;-46
2021/05/22 12:26:49;;;;;;;3.75;1.42;;;23.90;36.60;;;;;;5082389;28;20586;-43
2021/05/22 12:29:15;;;;;;;2.28;1.20;;;23.90;36.70;;;;;;5089749;28;20197;-44
2021/05/22 12:31:41;;;;;;;3.58;1.23;;;23.90;36.70;;;;;;5087200;28;20516;-47
2021/05/22 12:34:07;;;;;;;2.28;1.38;;;23.90;37.00;;;;;;5086725;28;20574;-47
2021/05/22 12:36:34;;;;;;;4.07;1.10;;;23.90;36.90;;;;;;5091515;28;20253;-43
2021/05/22 12:39:00;;;;;;;2.00;1.27;;;23.90;37.00;;;;;;5079119;28;20556;-45
2021/05/22 12:41:26;;;;;;;3.75;1.33;;;23.90;37.00;;;;;;5091030;28;20224;-49